createdAt,value
2018-09-29T00:00:27.105Z,11.30
2018-09-29T00:02:55.895Z,11.30
2018-09-29T00:05:24.250Z,11.30
2018-09-29T00:07:53.093Z,11.20
2018-09-29T00:10:21.490Z,11.20
2018-09-29T00:12:49.772Z,11.20
2018-09-29T00:15:19.293Z,11.20
2018-09-29T00:17:48.348Z,11.20
2018-09-29T00:20:16.681Z,10.90
2018-09-29T00:22:45.471Z,10.90
2018-09-29T00:25:13.837Z,11.00
2018-09-29T00:27:42.550Z,11.10
2018-09-29T00:30:10.888Z,11.10
2018-09-29T00:32:39.223Z,11.10
2018-09-29T00:35:07.619Z,11.10
2018-09-29T00:37:36.960Z,11.10
2018-09-29T00:40:06.191Z,11.10
2018-09-29T00:42:34.649Z,11.10
2018-09-29T00:45:03.788Z,11.00
2018-09-29T00:47:32.299Z,11.00
2018-09-29T00:50:00.860Z,10.90
2018-09-29T00:52:29.558Z,10.80
2018-09-29T00:54:57.890Z,10.80
2018-09-29T00:57:26.290Z,10.90
2018-09-29T00:59:54.689Z,10.90
2018-09-29T01:02:23.039Z,10.90
2018-09-29T01:04:51.338Z,10.90
2018-09-29T01:07:19.697Z,10.90
2018-09-29T01:09:48.515Z,10.90
2018-09-29T01:12:16.990Z,10.80
2018-09-29T01:14:45.311Z,10.80
2018-09-29T01:17:13.640Z,10.80
2018-09-29T01:19:41.939Z,10.70
2018-09-29T01:22:10.805Z,10.60
2018-09-29T01:24:39.684Z,10.30
2018-09-29T01:27:08.219Z,10.50
2018-09-29T01:29:36.889Z,10.60
2018-09-29T01:32:05.287Z,10.40
2018-09-29T01:34:33.610Z,10.40
2018-09-29T01:37:02.302Z,10.50
2018-09-29T01:39:30.712Z,10.50
2018-09-29T01:41:59.040Z,10.50
2018-09-29T01:44:27.411Z,10.50
2018-09-29T01:46:55.770Z,10.50
2018-09-29T01:49:24.121Z,10.50
2018-09-29T01:51:52.677Z,10.50
2018-09-29T01:54:21.038Z,10.60
2018-09-29T01:56:49.378Z,10.50
2018-09-29T01:59:17.779Z,10.50
2018-09-29T02:01:46.203Z,10.40
2018-09-29T02:04:14.575Z,10.40
2018-09-29T02:06:43.214Z,10.20
2018-09-29T02:09:11.614Z,10.30
2018-09-29T02:11:39.953Z,10.30
2018-09-29T02:14:08.249Z,10.20
2018-09-29T02:16:36.775Z,10.10
2018-09-29T02:19:05.231Z,10.00
2018-09-29T02:21:34.035Z,10.10
2018-09-29T02:24:02.374Z,10.10
2018-09-29T02:26:30.749Z,10.20
2018-09-29T02:28:59.980Z,10.20
2018-09-29T02:31:28.366Z,10.20
2018-09-29T02:33:57.440Z,10.10
2018-09-29T02:36:25.954Z,10.10
2018-09-29T02:38:54.315Z,10.10
2018-09-29T02:41:22.673Z,10.00
2018-09-29T02:43:51.081Z,10.00
2018-09-29T02:46:19.522Z,10.00
2018-09-29T02:48:47.824Z,10.00
2018-09-29T02:51:17.358Z,10.00
2018-09-29T02:53:45.670Z,10.00
2018-09-29T02:56:14.043Z,10.00
2018-09-29T02:58:42.763Z,10.00
2018-09-29T03:01:11.083Z,9.90
2018-09-29T03:03:39.492Z,9.90
2018-09-29T03:06:07.899Z,9.90
2018-09-29T03:08:36.256Z,9.90
2018-09-29T03:11:04.658Z,9.80
2018-09-29T03:13:32.978Z,9.80
2018-09-29T03:16:01.313Z,9.80
2018-09-29T03:18:29.652Z,9.80
2018-09-29T03:20:58.065Z,9.80
2018-09-29T03:23:26.617Z,9.80
2018-09-29T03:25:55.633Z,9.70
2018-09-29T03:28:23.960Z,9.80
2018-09-29T03:30:52.659Z,9.70
2018-09-29T03:33:20.982Z,9.80
2018-09-29T03:35:49.344Z,9.80
2018-09-29T03:38:17.815Z,9.80
2018-09-29T03:40:46.421Z,9.70
2018-09-29T03:43:14.845Z,9.60
2018-09-29T03:45:43.171Z,9.30
2018-09-29T03:48:11.555Z,9.40
2018-09-29T03:50:40.136Z,9.40
2018-09-29T03:53:08.450Z,9.50
2018-09-29T03:55:36.906Z,9.50
2018-09-29T03:58:05.448Z,9.50
2018-09-29T04:00:33.757Z,9.60
2018-09-29T04:03:02.097Z,9.60
2018-09-29T04:05:30.423Z,9.50
2018-09-29T04:07:58.715Z,9.60
2018-09-29T04:10:27.054Z,9.60
2018-09-29T04:12:56.717Z,9.60
2018-09-29T04:15:25.020Z,9.60
2018-09-29T04:17:53.705Z,9.50
2018-09-29T04:20:22.972Z,9.50
2018-09-29T04:22:51.474Z,9.40
2018-09-29T04:25:19.798Z,9.40
2018-09-29T04:27:48.188Z,9.50
2018-09-29T04:30:16.564Z,9.50
2018-09-29T04:32:44.877Z,9.40
2018-09-29T04:35:13.493Z,9.40
2018-09-29T04:37:41.831Z,9.30
2018-09-29T04:40:10.167Z,9.40
2018-09-29T04:42:38.474Z,9.20
2018-09-29T04:45:06.850Z,9.20
2018-09-29T04:47:35.152Z,9.10
2018-09-29T04:50:03.768Z,9.10
2018-09-29T04:52:32.216Z,9.20
2018-09-29T04:55:00.531Z,9.20
2018-09-29T04:57:29.115Z,9.20
2018-09-29T04:59:57.394Z,9.30
2018-09-29T05:02:25.773Z,9.30
2018-09-29T05:04:54.452Z,9.30
2018-09-29T05:07:22.759Z,9.10
2018-09-29T05:09:52.986Z,8.90
2018-09-29T05:12:21.366Z,9.00
2018-09-29T05:14:49.633Z,9.10
2018-09-29T05:17:17.963Z,9.00
2018-09-29T05:19:46.241Z,9.10
2018-09-29T05:22:14.767Z,9.10
2018-09-29T05:24:43.107Z,9.10
2018-09-29T05:27:12.435Z,9.10
2018-09-29T05:29:41.382Z,9.10
2018-09-29T05:32:10.351Z,8.90
2018-09-29T05:34:38.769Z,8.90
2018-09-29T05:37:07.142Z,9.00
2018-09-29T05:39:35.543Z,8.90
2018-09-29T05:42:05.127Z,8.60
2018-09-29T05:44:34.056Z,8.60
2018-09-29T05:47:02.495Z,8.70
2018-09-29T05:49:30.974Z,8.90
2018-09-29T05:52:01.628Z,8.80
2018-09-29T05:54:30.187Z,8.90
2018-09-29T05:56:59.055Z,8.90
2018-09-29T05:59:27.970Z,9.00
2018-09-29T06:01:56.778Z,9.00
2018-09-29T06:04:25.464Z,9.00
2018-09-29T06:06:53.960Z,9.00
2018-09-29T06:09:22.427Z,9.10
2018-09-29T06:11:51.724Z,9.10
2018-09-29T06:14:20.360Z,9.10
2018-09-29T06:16:48.817Z,9.10
2018-09-29T06:19:18.505Z,9.20
2018-09-29T06:21:49.707Z,9.10
2018-09-29T06:24:19.387Z,9.10
2018-09-29T06:26:48.079Z,9.20
2018-09-29T06:29:16.580Z,9.20
2018-09-29T06:31:46.050Z,9.20
2018-09-29T06:34:14.716Z,9.30
2018-09-29T06:36:43.053Z,9.30
2018-09-29T06:39:12.688Z,9.40
2018-09-29T06:41:41.708Z,9.40
2018-09-29T06:44:10.645Z,9.50
2018-09-29T06:46:39.308Z,9.50
2018-09-29T06:49:07.707Z,9.50
2018-09-29T06:51:36.055Z,9.60
2018-09-29T06:54:04.530Z,9.60
2018-09-29T06:56:35.875Z,9.70
2018-09-29T06:59:06.566Z,9.70
2018-09-29T07:01:35.689Z,9.80
2018-09-29T07:04:04.656Z,9.90
2018-09-29T07:06:33.448Z,10.00
2018-09-29T07:09:04.838Z,10.00
2018-09-29T07:11:36.472Z,9.70
2018-09-29T07:14:05.721Z,9.70
2018-09-29T07:16:43.647Z,9.70
2018-09-29T07:19:13.645Z,9.70
2018-09-29T07:21:42.113Z,9.70
2018-09-29T07:24:10.585Z,9.50
2018-09-29T07:26:40.223Z,9.40
2018-09-29T07:29:09.509Z,9.50
2018-09-29T07:31:38.719Z,9.60
2018-09-29T07:34:07.648Z,9.70
2018-09-29T07:36:36.304Z,9.70
2018-09-29T07:39:07.331Z,9.70
2018-09-29T07:41:36.114Z,9.80
2018-09-29T07:44:04.628Z,9.80
2018-09-29T07:46:33.651Z,9.80
2018-09-29T07:49:03.451Z,9.80
2018-09-29T07:51:34.081Z,9.90
2018-09-29T07:54:02.880Z,9.90
2018-09-29T07:56:39.847Z,10.00
2018-09-29T07:59:08.336Z,10.10
2018-09-29T08:01:37.379Z,10.30
2018-09-29T08:04:05.883Z,10.30
2018-09-29T08:06:34.198Z,10.50
2018-09-29T08:09:02.521Z,10.60
2018-09-29T08:11:30.977Z,10.60
2018-09-29T08:13:59.316Z,10.70
2018-09-29T08:16:27.673Z,10.80
2018-09-29T08:18:56.308Z,10.90
2018-09-29T08:21:24.667Z,11.00
2018-09-29T08:23:53.003Z,11.00
2018-09-29T08:26:21.754Z,11.00
2018-09-29T08:28:50.374Z,11.20
2018-09-29T08:31:18.780Z,11.30
2018-09-29T08:33:47.406Z,11.30
2018-09-29T08:36:15.981Z,11.30
2018-09-29T08:38:44.330Z,11.40
2018-09-29T08:41:13.215Z,11.50
2018-09-29T08:43:41.711Z,11.50
2018-09-29T08:46:10.158Z,11.60
2018-09-29T08:48:38.486Z,11.70
2018-09-29T08:51:06.802Z,11.90
2018-09-29T08:53:35.472Z,11.90
2018-09-29T08:56:03.706Z,11.90
2018-09-29T08:58:31.973Z,12.00
2018-09-29T09:01:00.229Z,12.10
2018-09-29T09:03:28.845Z,12.20
2018-09-29T09:05:57.359Z,12.30
2018-09-29T09:08:25.623Z,12.40
2018-09-29T09:10:54.994Z,12.40
2018-09-29T09:13:23.290Z,12.50
2018-09-29T09:15:52.094Z,12.60
2018-09-29T09:18:20.402Z,12.60
2018-09-29T09:20:48.695Z,12.60
2018-09-29T09:23:17.211Z,12.60
2018-09-29T09:25:45.629Z,12.70
2018-09-29T09:28:14.777Z,12.70
2018-09-29T09:30:43.098Z,12.70
2018-09-29T09:33:11.390Z,12.80
2018-09-29T09:35:39.641Z,12.90
2018-09-29T09:38:07.928Z,12.90
2018-09-29T09:40:36.339Z,12.90
2018-09-29T09:43:04.670Z,12.90
2018-09-29T09:45:32.983Z,13.00
2018-09-29T09:48:01.310Z,13.10
2018-09-29T09:50:29.608Z,12.90
2018-09-29T09:52:57.858Z,12.90
2018-09-29T09:55:26.158Z,13.00
2018-09-29T09:57:54.421Z,13.10
2018-09-29T10:00:27.007Z,13.10
2018-09-29T10:03:01.287Z,13.10
2018-09-29T10:05:29.610Z,13.20
2018-09-29T10:07:57.874Z,13.30
2018-09-29T10:10:26.130Z,13.20
2018-09-29T10:12:54.407Z,13.30
2018-09-29T10:15:22.719Z,13.30
2018-09-29T10:17:50.969Z,13.30
2018-09-29T10:20:19.282Z,13.40
2018-09-29T10:22:47.568Z,13.50
2018-09-29T10:25:16.894Z,13.50
2018-09-29T10:27:45.208Z,13.50
2018-09-29T10:30:13.443Z,13.60
2018-09-29T10:32:41.723Z,13.70
2018-09-29T10:35:11.046Z,13.70
2018-09-29T10:37:39.319Z,13.80
2018-09-29T10:40:08.239Z,13.90
2018-09-29T10:42:36.526Z,13.80
2018-09-29T10:45:04.881Z,13.80
2018-09-29T10:47:33.750Z,13.70
2018-09-29T10:50:02.024Z,13.70
2018-09-29T10:52:30.313Z,13.70
2018-09-29T10:54:58.631Z,13.80
2018-09-29T10:57:26.903Z,13.90
2018-09-29T10:59:55.301Z,13.90
2018-09-29T11:02:24.430Z,14.00
2018-09-29T11:04:54.936Z,14.00
2018-09-29T11:07:26.071Z,14.00
2018-09-29T11:09:56.471Z,14.00
2018-09-29T11:12:27.345Z,14.10
2018-09-29T11:15:03.769Z,14.10
2018-09-29T11:17:33.506Z,14.10
2018-09-29T11:20:03.637Z,14.10
2018-09-29T11:22:31.901Z,14.10
2018-09-29T11:25:01.005Z,14.10
2018-09-29T11:27:29.310Z,14.10
2018-09-29T11:29:57.820Z,14.10
2018-09-29T11:32:26.130Z,14.20
2018-09-29T11:34:57.792Z,14.30
2018-09-29T11:37:26.176Z,14.30
2018-09-29T11:39:55.378Z,14.40
2018-09-29T11:42:23.671Z,14.40
2018-09-29T11:44:53.636Z,14.40
2018-09-29T11:47:21.934Z,14.40
2018-09-29T11:49:50.277Z,14.30
2018-09-29T11:52:18.610Z,14.30
2018-09-29T11:54:46.898Z,14.20
2018-09-29T11:57:15.255Z,14.20
2018-09-29T11:59:43.572Z,14.20
2018-09-29T12:02:11.967Z,14.20
2018-09-29T12:04:40.613Z,14.70
2018-09-29T12:07:09.367Z,14.70
2018-09-29T12:09:37.667Z,14.50
2018-09-29T12:12:06.022Z,14.50
2018-09-29T12:14:34.392Z,14.60
2018-09-29T12:17:02.714Z,14.60
2018-09-29T12:19:31.258Z,14.60
2018-09-29T12:21:59.707Z,14.50
2018-09-29T12:24:28.006Z,14.40
2018-09-29T12:26:56.393Z,14.40
2018-09-29T12:29:24.931Z,14.40
2018-09-29T12:31:53.255Z,14.40
2018-09-29T12:34:21.573Z,14.50
2018-09-29T12:36:50.324Z,14.60
2018-09-29T12:39:18.550Z,14.60
2018-09-29T12:41:46.868Z,14.60
2018-09-29T12:44:15.263Z,14.70
2018-09-29T12:46:43.570Z,14.70
2018-09-29T12:49:11.860Z,14.70
2018-09-29T12:51:40.273Z,14.70
2018-09-29T12:54:08.599Z,14.70
2018-09-29T12:56:37.023Z,14.70
2018-09-29T12:59:05.351Z,14.80
2018-09-29T13:01:33.790Z,14.70
2018-09-29T13:04:02.315Z,14.80
2018-09-29T13:06:30.888Z,14.80
2018-09-29T13:09:00.029Z,14.90
2018-09-29T13:11:28.498Z,14.90
2018-09-29T13:13:57.852Z,14.80
2018-09-29T13:16:26.260Z,14.60
2018-09-29T13:18:55.652Z,14.50
2018-09-29T13:21:24.043Z,14.70
2018-09-29T13:23:52.379Z,14.60
2018-09-29T13:26:20.916Z,14.70
2018-09-29T13:28:49.271Z,14.70
2018-09-29T13:31:17.636Z,14.80
2018-09-29T13:33:45.926Z,14.90
2018-09-29T13:36:16.789Z,15.00
2018-09-29T13:38:45.754Z,14.90
2018-09-29T13:41:14.246Z,14.90
2018-09-29T13:43:42.759Z,14.90
2018-09-29T13:46:11.073Z,14.90
2018-09-29T13:48:39.603Z,14.90
2018-09-29T13:51:07.889Z,14.90
2018-09-29T13:53:36.254Z,15.00
2018-09-29T13:56:05.015Z,14.90
2018-09-29T13:58:33.760Z,14.70
2018-09-29T14:01:02.243Z,14.80
2018-09-29T14:03:30.702Z,14.80
2018-09-29T14:05:59.257Z,14.80
2018-09-29T14:08:27.603Z,14.90
2018-09-29T14:10:55.976Z,14.90
2018-09-29T14:13:24.404Z,14.70
2018-09-29T14:15:52.699Z,14.70
2018-09-29T14:18:21.020Z,14.80
2018-09-29T14:20:50.021Z,14.80
2018-09-29T14:23:18.503Z,14.90
2018-09-29T14:25:47.077Z,15.00
2018-09-29T14:28:15.763Z,15.00
2018-09-29T14:30:44.238Z,15.00
2018-09-29T14:33:12.652Z,14.90
2018-09-29T14:35:41.478Z,14.90
2018-09-29T14:38:10.050Z,15.10
2018-09-29T14:40:38.874Z,14.90
2018-09-29T14:43:07.316Z,14.90
2018-09-29T14:45:35.694Z,14.90
2018-09-29T14:48:06.048Z,14.90
2018-09-29T14:50:34.781Z,15.00
2018-09-29T14:53:03.299Z,15.00
2018-09-29T14:55:33.219Z,15.00
2018-09-29T14:58:02.797Z,15.10
2018-09-29T15:00:31.381Z,15.10
2018-09-29T15:03:00.486Z,15.10
2018-09-29T15:05:29.126Z,15.10
2018-09-29T15:07:57.773Z,15.20
2018-09-29T15:10:26.516Z,15.20
2018-09-29T15:12:55.875Z,15.10
2018-09-29T15:15:25.327Z,15.00
2018-09-29T15:17:54.637Z,14.90
2018-09-29T15:20:24.361Z,14.90
2018-09-29T15:22:53.051Z,14.90
2018-09-29T15:25:22.983Z,15.00
2018-09-29T15:27:53.599Z,15.10
2018-09-29T15:30:22.830Z,15.00
2018-09-29T15:32:51.484Z,15.00
2018-09-29T15:35:21.921Z,15.00
2018-09-29T15:37:50.341Z,15.00
2018-09-29T15:40:18.761Z,15.00
2018-09-29T15:42:47.394Z,15.10
2018-09-29T15:45:16.291Z,15.00
2018-09-29T15:47:44.999Z,15.00
2018-09-29T15:50:13.833Z,15.10
2018-09-29T15:52:42.125Z,15.20
2018-09-29T15:55:10.585Z,15.10
2018-09-29T15:57:38.890Z,15.00
2018-09-29T16:00:08.178Z,15.10
2018-09-29T16:02:36.430Z,15.00
2018-09-29T16:05:04.854Z,15.00
2018-09-29T16:07:33.183Z,14.90
2018-09-29T16:10:01.563Z,14.90
2018-09-29T16:12:29.883Z,15.00
2018-09-29T16:14:58.579Z,14.80
2018-09-29T16:17:27.828Z,14.70
2018-09-29T16:19:56.544Z,14.80
2018-09-29T16:22:24.860Z,14.70
2018-09-29T16:24:53.668Z,14.70
2018-09-29T16:27:22.091Z,14.70
2018-09-29T16:29:50.488Z,14.70
2018-09-29T16:32:18.969Z,14.70
2018-09-29T16:34:47.259Z,14.60
2018-09-29T16:37:16.870Z,14.60
2018-09-29T16:39:45.324Z,14.70
2018-09-29T16:42:14.582Z,14.60
2018-09-29T16:44:42.948Z,14.60
2018-09-29T16:47:11.532Z,14.60
2018-09-29T16:49:39.846Z,14.60
2018-09-29T16:52:08.193Z,14.60
2018-09-29T16:54:36.853Z,14.60
2018-09-29T16:57:05.328Z,14.60
2018-09-29T16:59:33.659Z,14.60
2018-09-29T17:02:02.005Z,14.50
2018-09-29T17:04:31.021Z,14.40
2018-09-29T17:06:59.359Z,14.50
2018-09-29T17:09:28.101Z,14.50
2018-09-29T17:11:56.462Z,14.60
2018-09-29T17:14:27.381Z,14.50
2018-09-29T17:16:55.723Z,14.50
2018-09-29T17:19:25.038Z,14.60
2018-09-29T17:22:06.823Z,14.60
2018-09-29T17:24:37.128Z,14.60
2018-09-29T17:27:06.483Z,14.40
2018-09-29T17:29:36.141Z,14.20
2018-09-29T17:32:20.650Z,14.00
2018-09-29T17:34:49.070Z,14.00
2018-09-29T17:37:18.117Z,14.10
2018-09-29T17:39:46.728Z,13.90
2018-09-29T17:42:15.148Z,13.70
2018-09-29T17:44:43.519Z,13.50
2018-09-29T17:47:11.822Z,13.30
2018-09-29T17:49:40.103Z,13.40
2018-09-29T17:52:08.678Z,13.50
2018-09-29T17:54:37.302Z,13.60
2018-09-29T17:57:05.991Z,13.80
2018-09-29T17:59:34.274Z,13.90
2018-09-29T18:02:02.534Z,13.80
2018-09-29T18:04:31.422Z,13.90
2018-09-29T18:06:59.754Z,13.80
2018-09-29T18:09:28.115Z,13.70
2018-09-29T18:11:56.449Z,13.40
2018-09-29T18:14:27.117Z,13.30
2018-09-29T18:16:56.563Z,13.20
2018-09-29T18:19:25.288Z,13.20
2018-09-29T18:21:53.683Z,13.20
2018-09-29T18:24:21.998Z,13.10
2018-09-29T18:26:50.710Z,13.10
2018-09-29T18:29:19.077Z,13.10
2018-09-29T18:31:47.754Z,12.90
2018-09-29T18:34:16.945Z,12.90
2018-09-29T18:36:46.883Z,13.10
2018-09-29T18:39:15.360Z,13.10
2018-09-29T18:41:43.685Z,12.80
2018-09-29T18:44:12.087Z,12.50
2018-09-29T18:46:40.472Z,12.50
2018-09-29T18:49:09.330Z,12.60
2018-09-29T18:51:37.684Z,12.60
2018-09-29T18:54:06.134Z,12.80
2018-09-29T18:56:38.646Z,12.90
2018-09-29T18:59:07.166Z,12.90
2018-09-29T19:01:36.682Z,12.80
2018-09-29T19:04:06.349Z,12.50
2018-09-29T19:06:35.726Z,12.60
2018-09-29T19:09:06.090Z,12.60
2018-09-29T19:11:34.563Z,12.40
2018-09-29T19:14:03.802Z,12.40
2018-09-29T19:16:32.395Z,12.30
2018-09-29T19:19:01.043Z,12.20
2018-09-29T19:21:30.282Z,12.30
2018-09-29T19:23:58.701Z,12.40
2018-09-29T19:26:27.075Z,12.40
2018-09-29T19:28:56.480Z,12.50
2018-09-29T19:31:24.950Z,12.60
2018-09-29T19:33:53.350Z,12.50
2018-09-29T19:36:22.049Z,12.50
2018-09-29T19:38:50.410Z,12.50
2018-09-29T19:41:19.381Z,12.50
2018-09-29T19:43:47.869Z,12.50
2018-09-29T19:46:16.362Z,12.50
2018-09-29T19:48:44.777Z,12.50
2018-09-29T19:51:13.180Z,12.50
2018-09-29T19:53:41.469Z,12.50
2018-09-29T19:56:09.911Z,12.50
2018-09-29T19:58:38.577Z,12.50
2018-09-29T20:01:07.081Z,12.50
2018-09-29T20:03:36.167Z,12.40
2018-09-29T20:06:04.504Z,12.40
2018-09-29T20:08:32.821Z,12.40
2018-09-29T20:11:01.283Z,12.40
2018-09-29T20:13:29.891Z,12.30
2018-09-29T20:15:58.220Z,12.30
2018-09-29T20:18:27.295Z,12.20
2018-09-29T20:20:55.602Z,12.20
2018-09-29T20:23:26.731Z,12.20
2018-09-29T20:25:55.799Z,12.20
2018-09-29T20:28:24.279Z,12.20
2018-09-29T20:30:52.770Z,12.20
2018-09-29T20:33:21.328Z,12.20
2018-09-29T20:35:49.873Z,12.10
2018-09-29T20:38:19.537Z,12.10
2018-09-29T20:40:48.100Z,12.10
2018-09-29T20:43:16.675Z,12.10
2018-09-29T20:45:45.089Z,12.10
2018-09-29T20:48:13.546Z,12.00
2018-09-29T20:50:42.065Z,12.00
2018-09-29T20:53:10.545Z,12.00
2018-09-29T20:55:38.930Z,11.80
2018-09-29T20:58:07.671Z,11.80
2018-09-29T21:00:37.036Z,11.80
2018-09-29T21:03:05.426Z,11.80
2018-09-29T21:05:33.797Z,11.80
2018-09-29T21:08:02.094Z,11.60
2018-09-29T21:10:30.466Z,11.40
2018-09-29T21:12:58.867Z,11.20
2018-09-29T21:15:27.316Z,11.00
2018-09-29T21:17:55.622Z,11.10
2018-09-29T21:20:23.957Z,11.20
2018-09-29T21:22:52.303Z,11.00
2018-09-29T21:25:21.237Z,11.10
2018-09-29T21:27:49.988Z,11.20
2018-09-29T21:30:18.312Z,11.30
2018-09-29T21:32:46.661Z,11.20
2018-09-29T21:35:16.243Z,11.20
2018-09-29T21:37:44.779Z,10.90
2018-09-29T21:40:13.179Z,10.50
2018-09-29T21:42:41.507Z,10.60
2018-09-29T21:45:09.851Z,10.80
2018-09-29T21:47:38.244Z,10.70
2018-09-29T21:50:06.728Z,10.60
2018-09-29T21:52:35.465Z,10.50
2018-09-29T21:55:03.808Z,10.40
2018-09-29T21:57:33.175Z,10.20
2018-09-29T22:00:01.750Z,10.20
2018-09-29T22:02:30.347Z,10.30
2018-09-29T22:04:58.766Z,10.30
2018-09-29T22:07:27.068Z,10.20
2018-09-29T22:09:55.526Z,9.90
2018-09-29T22:12:23.840Z,9.90
2018-09-29T22:14:52.191Z,10.10
2018-09-29T22:17:21.425Z,10.30
2018-09-29T22:19:50.277Z,10.40
2018-09-29T22:22:18.815Z,10.40
2018-09-29T22:24:47.308Z,10.20
2018-09-29T22:27:15.662Z,10.30
2018-09-29T22:29:43.937Z,10.40
2018-09-29T22:32:12.225Z,10.50
2018-09-29T22:34:40.516Z,10.50
2018-09-29T22:37:08.910Z,10.60
2018-09-29T22:39:37.216Z,10.60
2018-09-29T22:42:05.557Z,10.60
2018-09-29T22:44:33.843Z,10.60
2018-09-29T22:47:02.124Z,10.60
2018-09-29T22:49:30.411Z,10.60
2018-09-29T22:51:58.797Z,10.40
2018-09-29T22:54:27.113Z,10.30
2018-09-29T22:56:55.453Z,10.30
2018-09-29T22:59:23.754Z,10.40
2018-09-29T23:01:52.679Z,10.40
2018-09-29T23:04:21.513Z,10.50
2018-09-29T23:06:49.806Z,10.30
2018-09-29T23:09:18.104Z,10.20
2018-09-29T23:11:46.568Z,10.30
2018-09-29T23:14:15.186Z,10.30
2018-09-29T23:16:44.079Z,10.40
2018-09-29T23:19:12.522Z,10.40
2018-09-29T23:21:40.731Z,10.40
2018-09-29T23:24:10.101Z,10.40
2018-09-29T23:26:38.426Z,10.40
2018-09-29T23:29:06.712Z,10.40
2018-09-29T23:31:35.020Z,10.40
2018-09-29T23:34:03.311Z,10.40
2018-09-29T23:36:31.661Z,10.40
2018-09-29T23:39:00.547Z,10.40
2018-09-29T23:41:28.881Z,10.30
2018-09-29T23:43:57.221Z,10.40
2018-09-29T23:46:25.942Z,10.30
2018-09-29T23:48:55.269Z,10.30
2018-09-29T23:51:23.639Z,10.30
2018-09-29T23:53:51.944Z,10.30
2018-09-29T23:56:20.222Z,10.30
2018-09-29T23:58:49.135Z,10.30
